createdAt,value
2023-02-22T00:02:27.151Z,98.66
2023-02-22T00:05:10.728Z,98.97
2023-02-22T00:07:51.379Z,99.02
2023-02-22T00:10:42.239Z,99.37
2023-02-22T00:13:33.169Z,99.39
2023-02-22T00:16:25.500Z,99.18
2023-02-22T00:19:10.751Z,98.91
2023-02-22T00:22:01.580Z,99.26
2023-02-22T00:24:43.545Z,99.34
2023-02-22T00:27:34.442Z,99.57
2023-02-22T00:30:26.806Z,99.33
2023-02-22T00:33:01.154Z,98.99
2023-02-22T00:35:50.617Z,98.65
2023-02-22T00:38:42.093Z,98.69
2023-02-22T00:41:21.518Z,98.63
2023-02-22T00:44:12.743Z,99.02
2023-02-22T00:47:04.831Z,99.27
2023-02-22T00:49:55.773Z,99.57
2023-02-22T00:52:26.652Z,99.51
2023-02-22T00:55:21.243Z,99.64
2023-02-22T00:58:03.389Z,99.04
2023-02-22T01:00:47.401Z,99.12
2023-02-22T01:03:41.379Z,99.63
2023-02-22T01:06:32.528Z,99.76
2023-02-22T01:09:23.358Z,99.87
2023-02-22T01:12:14.358Z,99.82
2023-02-22T01:15:10.384Z,99.67
2023-02-22T01:18:01.785Z,99.63
2023-02-22T01:20:52.768Z,99.09
2023-02-22T01:23:45.222Z,98.80
2023-02-22T01:26:29.925Z,98.62
2023-02-22T01:29:15.541Z,98.77
2023-02-22T01:31:55.052Z,98.91
2023-02-22T01:34:46.528Z,99.49
2023-02-22T01:37:17.052Z,99.55
2023-02-22T01:40:11.421Z,99.91
2023-02-22T01:43:04.920Z,99.99
2023-02-22T01:46:01.659Z,99.70
2023-02-22T01:48:56.018Z,99.73
2023-02-22T01:51:49.400Z,99.87
2023-02-22T01:54:33.505Z,100.00
2023-02-22T01:57:29.850Z,99.92
2023-02-22T02:00:17.376Z,99.63
2023-02-22T02:02:59.011Z,99.86
2023-02-22T02:05:51.051Z,99.84
2023-02-22T02:08:51.723Z,99.81
2023-02-22T02:11:44.547Z,99.84
2023-02-22T02:14:25.379Z,99.90
2023-02-22T02:17:20.989Z,99.59
2023-02-22T02:20:20.873Z,99.87
2023-02-22T02:23:14.584Z,99.93
2023-02-22T02:26:25.888Z,99.97
2023-02-22T02:29:53.344Z,99.85
2023-02-22T02:32:35.145Z,100.00
2023-02-22T02:35:14.443Z,100.00
2023-02-22T02:38:18.198Z,100.00
2023-02-22T02:41:00.562Z,100.00
2023-02-22T02:43:45.436Z,100.00
2023-02-22T02:46:34.615Z,100.00
2023-02-22T02:49:23.412Z,100.00
2023-02-22T02:52:02.040Z,100.00
2023-02-22T02:54:55.319Z,100.00
2023-02-22T02:57:46.404Z,100.00
2023-02-22T03:00:39.302Z,100.00
2023-02-22T03:03:23.852Z,100.00
2023-02-22T03:06:10.145Z,100.00
2023-02-22T03:08:46.320Z,100.00
2023-02-22T03:11:48.474Z,100.00
2023-02-22T03:14:39.396Z,100.00
2023-02-22T03:17:19.291Z,100.00
2023-02-22T03:20:06.398Z,100.00
2023-02-22T03:23:02.463Z,100.00
2023-02-22T03:25:50.115Z,100.00
2023-02-22T03:28:27.956Z,100.00
2023-02-22T03:31:14.127Z,100.00
2023-02-22T03:34:02.728Z,100.00
2023-02-22T03:36:52.959Z,100.00
2023-02-22T03:39:45.707Z,100.00
2023-02-22T03:42:40.972Z,100.00
2023-02-22T03:45:26.351Z,100.00
2023-02-22T03:48:10.403Z,100.00
2023-02-22T03:51:04.478Z,100.00
2023-02-22T03:53:48.497Z,100.00
2023-02-22T03:56:47.349Z,100.00
2023-02-22T03:59:39.186Z,100.00
2023-02-22T04:02:20.469Z,100.00
2023-02-22T04:05:11.733Z,100.00
2023-02-22T04:07:56.683Z,100.00
2023-02-22T04:10:47.586Z,100.00
2023-02-22T04:13:38.300Z,100.00
2023-02-22T04:16:29.209Z,100.00
2023-02-22T04:18:59.819Z,100.00
2023-02-22T04:21:30.549Z,100.00
2023-02-22T04:24:15.839Z,100.00
2023-02-22T04:27:06.658Z,100.00
2023-02-22T04:29:40.918Z,100.00
2023-02-22T04:32:23.120Z,100.00
2023-02-22T04:35:13.985Z,100.00
2023-02-22T04:38:05.030Z,100.00
2023-02-22T04:40:56.023Z,100.00
2023-02-22T04:43:47.453Z,100.00
2023-02-22T04:46:41.418Z,100.00
2023-02-22T04:49:32.201Z,100.00
2023-02-22T04:52:17.539Z,100.00
2023-02-22T04:55:10.042Z,100.00
2023-02-22T04:58:00.863Z,100.00
2023-02-22T05:00:41.882Z,100.00
2023-02-22T05:03:12.891Z,100.00
2023-02-22T05:06:03.663Z,100.00
2023-02-22T05:08:54.429Z,100.00
2023-02-22T05:11:45.179Z,100.00
2023-02-22T05:14:36.119Z,100.00
2023-02-22T05:17:10.455Z,100.00
2023-02-22T05:20:01.676Z,100.00
2023-02-22T05:22:52.759Z,100.00
2023-02-22T05:25:43.644Z,100.00
2023-02-22T05:28:35.172Z,100.00
2023-02-22T05:31:08.933Z,100.00
2023-02-22T05:33:59.828Z,100.00
2023-02-22T05:36:40.073Z,100.00
2023-02-22T05:39:30.879Z,100.00
2023-02-22T05:42:14.640Z,100.00
2023-02-22T05:45:05.907Z,100.00
2023-02-22T05:47:57.486Z,100.00
2023-02-22T05:50:47.323Z,100.00
2023-02-22T05:53:38.195Z,100.00
2023-02-22T05:56:11.506Z,100.00
2023-02-22T05:59:02.226Z,100.00
2023-02-22T06:01:52.984Z,100.00
2023-02-22T06:04:36.818Z,100.00
2023-02-22T06:07:28.093Z,100.00
2023-02-22T06:10:20.217Z,100.00
2023-02-22T06:13:01.655Z,100.00
2023-02-22T06:15:50.907Z,100.00
2023-02-22T06:18:41.778Z,100.00
2023-02-22T06:21:32.770Z,100.00
2023-02-22T06:24:23.618Z,100.00
2023-02-22T06:27:13.259Z,100.00
2023-02-22T06:30:05.205Z,100.00
2023-02-22T06:32:56.199Z,100.00
2023-02-22T06:35:49.986Z,100.00
2023-02-22T06:38:40.976Z,100.00
2023-02-22T06:41:31.919Z,100.00
2023-02-22T06:44:05.387Z,100.00
2023-02-22T06:46:56.342Z,100.00
2023-02-22T06:49:46.420Z,100.00
2023-02-22T06:52:30.949Z,100.00
2023-02-22T06:55:24.981Z,100.00
2023-02-22T06:57:58.247Z,100.00
2023-02-22T07:00:49.179Z,100.00
2023-02-22T07:03:40.034Z,100.00
2023-02-22T07:06:31.353Z,100.00
2023-02-22T07:09:12.968Z,100.00
2023-02-22T07:12:04.078Z,100.00
2023-02-22T07:14:58.290Z,100.00
2023-02-22T07:17:42.965Z,100.00
2023-02-22T07:20:24.629Z,100.00
2023-02-22T07:23:06.090Z,100.00
2023-02-22T07:25:42.313Z,100.00
2023-02-22T07:28:33.217Z,100.00
2023-02-22T07:31:08.017Z,100.00
2023-02-22T07:33:51.523Z,100.00
2023-02-22T07:36:41.600Z,100.00
2023-02-22T07:39:34.639Z,100.00
2023-02-22T07:42:25.500Z,100.00
2023-02-22T07:44:59.092Z,100.00
2023-02-22T07:47:33.174Z,100.00
2023-02-22T07:50:26.089Z,100.00
2023-02-22T07:53:19.771Z,100.00
2023-02-22T07:55:53.472Z,100.00
2023-02-22T07:58:35.637Z,100.00
2023-02-22T08:01:17.442Z,100.00
2023-02-22T08:04:07.849Z,100.00
2023-02-22T08:06:52.555Z,100.00
2023-02-22T08:09:43.614Z,100.00
2023-02-22T08:12:14.264Z,100.00
2023-02-22T08:14:53.993Z,100.00
2023-02-22T08:17:27.254Z,100.00
2023-02-22T08:20:19.408Z,100.00
2023-02-22T08:22:53.798Z,100.00
2023-02-22T08:25:29.248Z,100.00
2023-02-22T08:28:24.906Z,100.00
2023-02-22T08:31:16.151Z,100.00
2023-02-22T08:33:50.895Z,100.00
2023-02-22T08:36:21.661Z,100.00
2023-02-22T08:38:53.892Z,100.00
2023-02-22T08:41:45.193Z,100.00
2023-02-22T08:44:18.326Z,100.00
2023-02-22T08:47:00.326Z,100.00
2023-02-22T08:49:31.374Z,100.00
2023-02-22T08:52:02.205Z,100.00
2023-02-22T08:54:34.340Z,100.00
2023-02-22T08:57:07.528Z,100.00
2023-02-22T08:59:42.922Z,100.00
2023-02-22T09:02:33.865Z,100.00
2023-02-22T09:05:24.936Z,100.00
2023-02-22T09:07:56.170Z,100.00
2023-02-22T09:10:29.866Z,99.91
2023-02-22T09:13:05.300Z,98.85
2023-02-22T09:15:56.425Z,99.58
2023-02-22T09:18:43.666Z,99.46
2023-02-22T09:21:15.745Z,99.29
2023-02-22T09:23:49.448Z,98.74
2023-02-22T09:26:20.360Z,97.90
2023-02-22T09:28:51.101Z,97.70
2023-02-22T09:31:22.519Z,96.22
2023-02-22T09:33:56.853Z,95.50
2023-02-22T09:36:29.864Z,94.91
2023-02-22T09:39:21.920Z,94.22
2023-02-22T09:42:18.712Z,93.57
2023-02-22T09:44:54.517Z,90.48
2023-02-22T09:47:33.917Z,88.17
2023-02-22T09:50:15.794Z,88.42
2023-02-22T09:52:58.904Z,85.99
2023-02-22T09:55:53.052Z,82.29
2023-02-22T09:58:33.501Z,81.17
2023-02-22T10:01:20.076Z,81.53
2023-02-22T10:04:02.695Z,80.66
2023-02-22T10:06:37.645Z,79.40
2023-02-22T10:09:15.683Z,79.07
2023-02-22T10:12:16.705Z,77.43
2023-02-22T10:15:12.290Z,77.81
2023-02-22T10:17:55.991Z,75.94
2023-02-22T10:20:43.983Z,75.10
2023-02-22T10:23:25.683Z,74.02
2023-02-22T10:26:06.555Z,72.34
2023-02-22T10:28:42.948Z,73.45
2023-02-22T10:31:24.558Z,71.63
2023-02-22T10:34:01.156Z,70.40
2023-02-22T10:36:32.015Z,71.33
2023-02-22T10:39:13.443Z,70.93
2023-02-22T10:42:06.925Z,70.91
2023-02-22T10:44:57.891Z,69.03
2023-02-22T10:47:28.903Z,68.27
2023-02-22T10:50:01.887Z,68.29
2023-02-22T10:52:35.497Z,68.28
2023-02-22T10:55:15.534Z,67.76
2023-02-22T10:57:50.030Z,67.38
2023-02-22T11:00:31.144Z,66.88
2023-02-22T11:03:08.526Z,66.22
2023-02-22T11:05:44.956Z,65.75
2023-02-22T11:08:33.016Z,65.31
2023-02-22T11:11:23.984Z,66.00
2023-02-22T11:14:07.578Z,65.58
2023-02-22T11:16:44.081Z,65.87
2023-02-22T11:19:24.654Z,65.51
2023-02-22T11:22:21.202Z,63.68
2023-02-22T11:27:40.714Z,63.24
2023-02-22T11:30:29.700Z,63.26
2023-02-22T11:33:07.677Z,62.22
2023-02-22T11:35:52.744Z,62.32
2023-02-22T11:38:25.471Z,62.24
2023-02-22T11:41:14.558Z,62.05
2023-02-22T11:43:47.354Z,61.40
2023-02-22T11:46:33.314Z,60.89
2023-02-22T11:49:06.792Z,60.83
2023-02-22T11:51:50.098Z,60.06
2023-02-22T11:54:34.951Z,60.73
2023-02-22T11:57:23.066Z,60.27
2023-02-22T12:00:12.173Z,59.54
2023-02-22T12:02:58.702Z,59.46
2023-02-22T12:05:43.308Z,59.43
2023-02-22T12:08:26.099Z,58.76
2023-02-22T12:11:10.273Z,58.99
2023-02-22T12:13:53.271Z,59.32
2023-02-22T12:16:38.058Z,58.08
2023-02-22T12:19:19.628Z,58.60
2023-02-22T12:21:58.339Z,57.80
2023-02-22T12:24:37.264Z,57.64
2023-02-22T12:27:12.755Z,57.54
2023-02-22T12:29:48.158Z,57.22
2023-02-22T12:32:27.147Z,56.87
2023-02-22T12:35:05.578Z,56.62
2023-02-22T12:37:50.461Z,56.74
2023-02-22T12:40:28.283Z,57.16
2023-02-22T12:43:05.855Z,57.08
2023-02-22T12:45:42.220Z,55.02
2023-02-22T12:48:33.678Z,53.70
2023-02-22T12:51:05.060Z,54.03
2023-02-22T12:53:40.335Z,53.38
2023-02-22T12:56:21.964Z,53.03
2023-02-22T12:59:02.937Z,53.27
2023-02-22T13:01:41.285Z,52.67
2023-02-22T13:04:20.988Z,52.06
2023-02-22T13:07:18.805Z,51.30
2023-02-22T13:10:20.453Z,51.22
2023-02-22T13:12:58.489Z,50.83
2023-02-22T13:15:36.848Z,51.05
2023-02-22T13:18:16.118Z,50.46
2023-02-22T13:20:53.723Z,49.50
2023-02-22T13:23:39.108Z,49.90
2023-02-22T13:26:19.849Z,48.79
2023-02-22T13:28:57.617Z,49.12
2023-02-22T13:31:52.281Z,47.46
2023-02-22T13:34:41.483Z,46.23
2023-02-22T13:37:36.152Z,46.02
2023-02-22T13:40:36.850Z,46.66
2023-02-22T13:43:35.772Z,46.82
2023-02-22T13:46:23.883Z,47.10
2023-02-22T13:49:12.217Z,47.35
2023-02-22T13:51:52.027Z,47.67
2023-02-22T13:54:30.072Z,47.71
2023-02-22T13:57:03.191Z,47.76
2023-02-22T13:59:36.599Z,48.08
2023-02-22T14:02:08.960Z,48.47
2023-02-22T14:04:44.145Z,48.81
2023-02-22T14:07:55.247Z,48.92
2023-02-22T14:10:52.171Z,49.66
2023-02-22T14:13:24.201Z,50.27
2023-02-22T14:16:20.361Z,49.92
2023-02-22T14:19:03.030Z,48.67
2023-02-22T14:21:35.172Z,48.31
2023-02-22T14:24:16.386Z,48.58
2023-02-22T14:26:58.577Z,48.80
2023-02-22T14:29:29.583Z,48.39
2023-02-22T14:32:06.507Z,48.12
2023-02-22T14:34:58.185Z,48.14
2023-02-22T14:37:36.584Z,48.80
2023-02-22T14:40:19.171Z,49.53
2023-02-22T14:42:57.204Z,49.56
2023-02-22T14:45:45.617Z,49.42
2023-02-22T14:48:25.098Z,49.96
2023-02-22T14:51:01.984Z,50.22
2023-02-22T14:53:44.134Z,50.18
2023-02-22T14:56:23.276Z,49.73
2023-02-22T14:59:01.378Z,50.35
2023-02-22T15:04:31.018Z,50.31
2023-02-22T15:07:20.498Z,50.57
2023-02-22T15:09:51.327Z,51.27
2023-02-22T15:12:29.993Z,51.17
2023-02-22T15:15:22.122Z,50.69
2023-02-22T15:17:58.176Z,51.16
2023-02-22T15:20:29.625Z,51.64
2023-02-22T15:23:03.081Z,51.95
2023-02-22T15:25:37.718Z,52.45
2023-02-22T15:28:16.357Z,52.91
2023-02-22T15:30:49.870Z,53.53
2023-02-22T15:33:24.414Z,53.92
2023-02-22T15:35:59.699Z,54.53
2023-02-22T15:38:33.374Z,54.71
2023-02-22T15:41:04.147Z,55.14
2023-02-22T15:43:43.369Z,55.42
2023-02-22T15:46:19.138Z,55.91
2023-02-22T15:49:20.338Z,56.48
2023-02-22T15:52:07.558Z,56.97
2023-02-22T15:54:50.201Z,57.86
2023-02-22T15:57:25.432Z,58.33
2023-02-22T15:59:58.885Z,58.89
2023-02-22T16:02:38.709Z,58.86
2023-02-22T16:05:14.300Z,58.99
2023-02-22T16:07:48.097Z,59.30
2023-02-22T16:10:29.841Z,59.57
2023-02-22T16:13:31.445Z,59.85
2023-02-22T16:16:27.482Z,60.23
2023-02-22T16:19:32.986Z,60.41
2023-02-22T16:22:06.400Z,60.50
2023-02-22T16:24:38.070Z,61.01
2023-02-22T16:27:21.352Z,61.62
2023-02-22T16:30:23.382Z,62.09
2023-02-22T16:32:57.396Z,62.69
2023-02-22T16:35:30.098Z,63.42
2023-02-22T16:38:03.583Z,64.00
2023-02-22T16:40:39.172Z,64.79
2023-02-22T16:43:13.716Z,65.45
2023-02-22T16:45:44.649Z,66.13
2023-02-22T16:48:27.573Z,66.58
2023-02-22T16:51:00.905Z,67.23
2023-02-22T16:53:34.963Z,67.85
2023-02-22T16:56:10.501Z,68.47
2023-02-22T16:58:43.428Z,68.64
2023-02-22T17:01:14.068Z,69.40
2023-02-22T17:03:47.971Z,70.16
2023-02-22T17:06:25.580Z,70.58
2023-02-22T17:08:56.575Z,70.97
2023-02-22T17:11:27.628Z,71.26
2023-02-22T17:14:01.220Z,71.70
2023-02-22T17:16:34.510Z,72.01
2023-02-22T17:19:18.994Z,72.12
2023-02-22T17:21:50.135Z,72.51
2023-02-22T17:24:34.105Z,72.83
2023-02-22T17:27:05.088Z,73.45
2023-02-22T17:29:35.891Z,73.62
2023-02-22T17:32:07.252Z,73.46
2023-02-22T17:34:36.569Z,73.38
2023-02-22T17:37:07.258Z,73.26
2023-02-22T17:39:49.484Z,72.67
2023-02-22T17:42:20.277Z,72.76
2023-02-22T17:44:50.947Z,71.93
2023-02-22T17:47:21.743Z,71.68
2023-02-22T17:49:58.046Z,71.46
2023-02-22T17:52:30.325Z,71.44
2023-02-22T17:55:06.988Z,71.29
2023-02-22T17:57:44.028Z,71.42
2023-02-22T18:00:23.398Z,71.53
2023-02-22T18:02:54.728Z,72.01
2023-02-22T18:05:23.939Z,71.96
2023-02-22T18:07:57.553Z,72.73
2023-02-22T18:10:28.532Z,73.18
2023-02-22T18:13:02.006Z,73.49
2023-02-22T18:15:35.727Z,73.82
2023-02-22T18:18:07.584Z,74.65
2023-02-22T18:20:44.083Z,75.11
2023-02-22T18:23:29.240Z,75.63
2023-02-22T18:26:11.147Z,75.99
2023-02-22T18:29:02.703Z,75.97
2023-02-22T18:31:33.587Z,76.23
2023-02-22T18:34:04.327Z,76.81
2023-02-22T18:36:37.943Z,77.22
2023-02-22T18:39:11.770Z,77.70
2023-02-22T18:41:43.112Z,77.42
2023-02-22T18:44:13.936Z,77.22
2023-02-22T18:46:47.903Z,77.84
2023-02-22T18:49:41.228Z,78.35
2023-02-22T18:52:12.125Z,78.90
2023-02-22T18:54:45.980Z,78.97
2023-02-22T18:57:17.042Z,79.47
2023-02-22T18:59:50.091Z,79.80
2023-02-22T19:02:25.552Z,80.29
2023-02-22T19:05:06.302Z,80.20
2023-02-22T19:07:48.450Z,80.68
2023-02-22T19:10:29.467Z,80.78
2023-02-22T19:13:00.886Z,81.51
2023-02-22T19:15:34.256Z,81.20
2023-02-22T19:18:13.120Z,81.70
2023-02-22T19:21:00.230Z,82.08
2023-02-22T19:23:34.924Z,82.25
2023-02-22T19:26:29.190Z,83.58
2023-02-22T19:29:04.795Z,83.40
2023-02-22T19:31:41.912Z,83.52
2023-02-22T19:34:15.961Z,84.18
2023-02-22T19:37:00.692Z,84.48
2023-02-22T19:39:59.074Z,84.80
2023-02-22T19:43:01.504Z,84.99
2023-02-22T19:45:42.034Z,84.37
2023-02-22T19:48:33.742Z,84.97
2023-02-22T19:51:26.005Z,84.99
2023-02-22T19:53:59.906Z,84.95
2023-02-22T19:56:32.331Z,85.13
2023-02-22T19:59:09.361Z,85.55
2023-02-22T20:01:44.835Z,85.90
2023-02-22T20:04:18.741Z,86.11
2023-02-22T20:06:54.592Z,86.45
2023-02-22T20:09:33.440Z,86.67
2023-02-22T20:12:04.887Z,86.67
2023-02-22T20:14:38.891Z,87.48
2023-02-22T20:17:10.282Z,87.08
2023-02-22T20:20:01.489Z,86.90
2023-02-22T20:22:35.287Z,87.11
2023-02-22T20:25:06.523Z,87.47
2023-02-22T20:27:39.475Z,87.83
2023-02-22T20:30:12.489Z,88.08
2023-02-22T20:32:43.550Z,88.85
2023-02-22T20:35:27.991Z,88.78
2023-02-22T20:37:59.101Z,88.90
2023-02-22T20:40:32.712Z,89.21
2023-02-22T20:43:04.993Z,89.55
2023-02-22T20:45:46.826Z,89.99
2023-02-22T20:48:17.602Z,89.53
2023-02-22T20:50:48.380Z,89.74
2023-02-22T20:53:19.843Z,89.99
2023-02-22T20:55:52.625Z,90.50
2023-02-22T20:58:23.236Z,90.71
2023-02-22T21:00:56.361Z,90.87
2023-02-22T21:03:30.490Z,91.29
2023-02-22T21:06:01.385Z,91.49
2023-02-22T21:08:32.729Z,91.92
2023-02-22T21:11:02.196Z,92.04
2023-02-22T21:13:52.952Z,92.75
2023-02-22T21:16:26.337Z,92.43
2023-02-22T21:18:59.073Z,92.46
2023-02-22T21:21:31.970Z,92.90
2023-02-22T21:24:03.329Z,92.61
2023-02-22T21:26:35.048Z,91.99
2023-02-22T21:29:17.069Z,92.05
2023-02-22T21:31:47.910Z,91.91
2023-02-22T21:34:20.047Z,92.39
2023-02-22T21:36:52.587Z,92.45
2023-02-22T21:39:28.657Z,92.72
2023-02-22T21:42:07.337Z,93.44
2023-02-22T21:44:38.102Z,93.93
2023-02-22T21:47:09.024Z,93.75
2023-02-22T21:49:39.838Z,93.60
2023-02-22T21:52:13.733Z,94.01
2023-02-22T21:54:44.607Z,94.21
2023-02-22T21:57:16.931Z,94.72
2023-02-22T21:59:58.904Z,95.26
2023-02-22T22:02:29.794Z,95.12
2023-02-22T22:05:00.636Z,94.75
2023-02-22T22:07:31.387Z,94.67
2023-02-22T22:10:03.537Z,94.68
2023-02-22T22:12:40.076Z,94.20
2023-02-22T22:15:16.421Z,93.84
2023-02-22T22:17:49.721Z,94.26
2023-02-22T22:20:21.958Z,95.09
2023-02-22T22:22:52.948Z,94.25
2023-02-22T22:25:24.411Z,93.71
2023-02-22T22:27:59.716Z,93.73
2023-02-22T22:30:30.581Z,93.44
2023-02-22T22:33:01.380Z,93.27
2023-02-22T22:35:33.621Z,93.57
2023-02-22T22:38:09.231Z,93.32
2023-02-22T22:40:51.116Z,92.83
2023-02-22T22:43:21.857Z,92.92
2023-02-22T22:46:05.364Z,93.46
2023-02-22T22:48:39.085Z,93.20
2023-02-22T22:51:12.299Z,93.04
2023-02-22T22:53:45.327Z,93.41
2023-02-22T22:56:20.974Z,93.55
2023-02-22T22:58:56.077Z,93.59
2023-02-22T23:01:32.624Z,93.46
2023-02-22T23:04:06.576Z,93.59
2023-02-22T23:06:40.584Z,93.77
2023-02-22T23:09:18.545Z,94.11
2023-02-22T23:11:54.217Z,94.78
2023-02-22T23:14:31.192Z,95.80
2023-02-22T23:17:16.156Z,96.04
2023-02-22T23:19:47.682Z,96.51
2023-02-22T23:22:18.455Z,96.52
2023-02-22T23:24:51.441Z,97.58
2023-02-22T23:27:28.052Z,99.08
2023-02-22T23:30:14.918Z,99.56
2023-02-22T23:32:47.110Z,100.00
2023-02-22T23:35:19.609Z,100.00
2023-02-22T23:37:53.960Z,100.00
2023-02-22T23:40:46.049Z,100.00
2023-02-22T23:43:16.925Z,100.00
2023-02-22T23:45:50.187Z,100.00
2023-02-22T23:48:20.725Z,100.00
2023-02-22T23:50:51.430Z,100.00
2023-02-22T23:53:22.199Z,100.00
2023-02-22T23:56:13.520Z,100.00
2023-02-22T23:58:47.075Z,100.00
